createdAt,value
2018-04-29T00:00:18.119Z,87.30
2018-04-29T00:02:45.790Z,86.20
2018-04-29T00:05:13.500Z,87.30
2018-04-29T00:07:41.846Z,84.50
2018-04-29T00:10:09.629Z,84.40
2018-04-29T00:12:37.274Z,87.30
2018-04-29T00:15:05.720Z,90.30
2018-04-29T00:17:33.384Z,90.30
2018-04-29T00:20:01.099Z,90.50
2018-04-29T00:22:29.492Z,90.50
2018-04-29T00:24:57.196Z,90.40
2018-04-29T00:27:24.991Z,91.20
2018-04-29T00:29:53.437Z,92.10
2018-04-29T00:32:21.126Z,92.00
2018-04-29T00:34:48.789Z,92.30
2018-04-29T00:37:16.492Z,91.70
2018-04-29T00:39:44.218Z,91.40
2018-04-29T00:42:12.742Z,91.30
2018-04-29T00:44:40.378Z,91.30
2018-04-29T00:47:09.958Z,90.80
2018-04-29T00:49:37.676Z,90.80
2018-04-29T00:52:07.388Z,91.40
2018-04-29T00:54:35.057Z,92.00
2018-04-29T00:57:02.724Z,91.30
2018-04-29T00:59:30.458Z,91.50
2018-04-29T01:01:58.854Z,90.90
2018-04-29T01:04:26.650Z,90.90
2018-04-29T01:06:54.229Z,91.60
2018-04-29T01:09:21.961Z,91.40
2018-04-29T01:11:49.939Z,92.00
2018-04-29T01:14:19.150Z,92.10
2018-04-29T01:16:46.948Z,92.20
2018-04-29T01:19:15.361Z,91.50
2018-04-29T01:21:43.083Z,91.50
2018-04-29T01:24:10.738Z,91.40
2018-04-29T01:26:38.350Z,91.50
2018-04-29T01:29:06.349Z,91.60
2018-04-29T01:31:33.960Z,91.80
2018-04-29T01:34:02.350Z,92.30
2018-04-29T01:36:30.019Z,92.20
2018-04-29T01:38:57.658Z,92.10
2018-04-29T01:41:25.582Z,91.60
2018-04-29T01:43:53.790Z,90.60
2018-04-29T01:46:22.322Z,91.10
2018-04-29T01:48:50.151Z,91.10
2018-04-29T01:51:17.886Z,91.40
2018-04-29T01:53:45.914Z,90.90
2018-04-29T01:56:14.210Z,90.90
2018-04-29T01:58:41.872Z,90.70
2018-04-29T02:01:09.497Z,90.80
2018-04-29T02:03:37.097Z,90.40
2018-04-29T02:06:04.723Z,91.20
2018-04-29T02:08:32.406Z,91.40
2018-04-29T02:11:01.077Z,91.80
2018-04-29T02:13:29.705Z,91.70
2018-04-29T02:15:57.334Z,91.40
2018-04-29T02:18:25.007Z,91.70
2018-04-29T02:20:52.740Z,91.70
2018-04-29T02:23:21.186Z,91.70
2018-04-29T02:25:49.124Z,92.00
2018-04-29T02:28:17.833Z,92.60
2018-04-29T02:30:45.470Z,92.50
2018-04-29T02:33:13.887Z,92.20
2018-04-29T02:35:42.268Z,92.50
2018-04-29T02:38:11.377Z,91.60
2018-04-29T02:40:39.039Z,91.60
2018-04-29T02:43:06.683Z,92.50
2018-04-29T02:45:34.417Z,92.20
2018-04-29T02:48:02.397Z,92.60
2018-04-29T02:50:29.980Z,92.90
2018-04-29T02:52:57.713Z,92.30
2018-04-29T02:55:25.436Z,92.00
2018-04-29T02:57:53.228Z,91.80
2018-04-29T03:00:21.664Z,92.10
2018-04-29T03:02:49.413Z,92.30
2018-04-29T03:05:18.167Z,92.10
2018-04-29T03:07:45.789Z,92.10
2018-04-29T03:10:13.501Z,92.20
2018-04-29T03:12:41.159Z,91.90
2018-04-29T03:15:08.771Z,92.00
2018-04-29T03:17:36.683Z,92.20
2018-04-29T03:20:05.179Z,92.60
2018-04-29T03:22:33.956Z,92.70
2018-04-29T03:25:01.608Z,92.50
2018-04-29T03:27:29.424Z,92.70
2018-04-29T03:29:57.849Z,92.20
2018-04-29T03:32:25.606Z,92.10
2018-04-29T03:34:53.290Z,91.80
2018-04-29T03:37:20.943Z,91.50
2018-04-29T03:39:49.467Z,92.00
2018-04-29T03:42:17.917Z,92.20
2018-04-29T03:44:46.415Z,92.30
2018-04-29T03:47:14.114Z,92.30
2018-04-29T03:49:41.802Z,93.10
2018-04-29T03:52:10.276Z,93.40
2018-04-29T03:54:37.886Z,93.50
2018-04-29T03:57:17.336Z,93.50
2018-04-29T03:59:57.558Z,93.60
2018-04-29T04:02:38.122Z,93.30
2018-04-29T04:05:06.455Z,93.30
2018-04-29T04:07:34.257Z,92.90
2018-04-29T04:10:02.730Z,92.80
2018-04-29T04:12:30.390Z,92.80
2018-04-29T04:14:58.111Z,92.60
2018-04-29T04:17:25.685Z,92.60
2018-04-29T04:19:53.335Z,92.20
2018-04-29T04:22:20.942Z,92.60
2018-04-29T04:24:49.522Z,91.80
2018-04-29T04:27:17.194Z,91.80
2018-04-29T04:29:44.844Z,91.60
2018-04-29T04:32:12.559Z,91.60
2018-04-29T04:34:40.194Z,91.30
2018-04-29T04:37:07.900Z,91.30
2018-04-29T04:39:35.511Z,91.00
2018-04-29T04:42:03.126Z,91.00
2018-04-29T04:44:30.750Z,91.20
2018-04-29T04:47:02.819Z,91.30
2018-04-29T04:49:31.748Z,91.50
2018-04-29T04:51:59.459Z,91.40
2018-04-29T04:54:27.005Z,91.70
2018-04-29T04:56:54.609Z,92.10
2018-04-29T04:59:22.367Z,93.00
2018-04-29T05:01:50.052Z,92.90
2018-04-29T05:04:18.556Z,92.30
2018-04-29T05:06:46.180Z,92.30
2018-04-29T05:09:15.459Z,91.20
2018-04-29T05:11:43.184Z,91.20
2018-04-29T05:14:10.883Z,92.40
2018-04-29T05:16:38.522Z,92.10
2018-04-29T05:19:06.143Z,93.00
2018-04-29T05:21:33.995Z,92.70
2018-04-29T05:24:02.370Z,92.30
2018-04-29T05:26:30.671Z,92.10
2018-04-29T05:28:58.358Z,92.00
2018-04-29T05:31:26.928Z,91.90
2018-04-29T05:33:55.576Z,91.80
2018-04-29T05:36:23.389Z,91.80
2018-04-29T05:38:51.124Z,91.40
2018-04-29T05:41:18.974Z,91.00
2018-04-29T05:43:47.615Z,91.80
2018-04-29T05:46:15.210Z,91.80
2018-04-29T05:48:42.910Z,91.90
2018-04-29T05:51:11.076Z,91.70
2018-04-29T05:53:38.785Z,91.20
2018-04-29T05:56:06.482Z,91.90
2018-04-29T05:58:35.202Z,90.20
2018-04-29T06:01:02.832Z,90.10
2018-04-29T06:03:30.408Z,88.70
2018-04-29T06:05:58.612Z,89.50
2018-04-29T06:08:27.456Z,90.40
2018-04-29T06:10:56.176Z,92.10
2018-04-29T06:13:23.875Z,92.00
2018-04-29T06:15:51.710Z,92.20
2018-04-29T06:18:19.502Z,91.50
2018-04-29T06:20:47.406Z,91.20
2018-04-29T06:23:15.201Z,90.20
2018-04-29T06:25:42.915Z,89.70
2018-04-29T06:28:11.573Z,88.30
2018-04-29T06:30:39.410Z,88.30
2018-04-29T06:33:07.021Z,88.20
2018-04-29T06:35:34.843Z,86.50
2018-04-29T06:38:02.609Z,85.70
2018-04-29T06:40:30.979Z,84.40
2018-04-29T06:42:58.682Z,83.80
2018-04-29T06:45:26.493Z,83.10
2018-04-29T06:47:54.134Z,83.70
2018-04-29T06:50:22.228Z,82.80
2018-04-29T06:52:50.028Z,80.10
2018-04-29T06:55:17.781Z,81.10
2018-04-29T06:57:45.538Z,80.40
2018-04-29T07:00:13.138Z,79.60
2018-04-29T07:02:40.864Z,79.70
2018-04-29T07:05:09.032Z,78.40
2018-04-29T07:07:36.866Z,77.00
2018-04-29T07:10:04.665Z,79.20
2018-04-29T07:12:32.262Z,78.80
2018-04-29T07:14:59.990Z,79.30
2018-04-29T07:17:27.738Z,78.10
2018-04-29T07:19:56.812Z,76.90
2018-04-29T07:22:25.307Z,75.50
2018-04-29T07:24:53.102Z,74.50
2018-04-29T07:27:21.757Z,72.80
2018-04-29T07:29:50.674Z,73.20
2018-04-29T07:32:18.445Z,73.10
2018-04-29T07:34:46.027Z,72.80
2018-04-29T07:37:22.296Z,71.10
2018-04-29T07:39:50.113Z,69.60
2018-04-29T07:42:17.668Z,70.80
2018-04-29T07:44:45.445Z,66.50
2018-04-29T07:47:14.152Z,70.50
2018-04-29T07:49:42.101Z,70.10
2018-04-29T07:52:19.189Z,66.20
2018-04-29T07:54:47.105Z,65.00
2018-04-29T07:57:15.561Z,64.20
2018-04-29T07:59:43.128Z,64.10
2018-04-29T08:02:13.180Z,63.60
2018-04-29T08:04:47.747Z,61.20
2018-04-29T08:07:15.798Z,61.10
2018-04-29T08:09:44.393Z,60.30
2018-04-29T08:12:12.007Z,62.20
2018-04-29T08:14:40.408Z,59.70
2018-04-29T08:17:15.574Z,59.60
2018-04-29T08:19:43.513Z,56.80
2018-04-29T08:22:11.126Z,57.00
2018-04-29T08:24:39.625Z,57.40
2018-04-29T08:27:07.252Z,57.40
2018-04-29T08:29:34.882Z,56.20
2018-04-29T08:32:02.849Z,55.20
2018-04-29T08:34:30.765Z,54.60
2018-04-29T08:36:59.178Z,54.60
2018-04-29T08:39:27.799Z,56.40
2018-04-29T08:41:55.786Z,56.40
2018-04-29T08:44:23.594Z,55.00
2018-04-29T08:46:52.220Z,51.90
2018-04-29T08:52:26.116Z,53.70
2018-04-29T08:54:54.679Z,51.80
2018-04-29T08:57:22.392Z,51.70
2018-04-29T08:59:50.058Z,51.60
2018-04-29T09:02:17.831Z,51.60
2018-04-29T09:04:45.819Z,49.80
2018-04-29T09:07:15.003Z,48.40
2018-04-29T09:09:42.683Z,47.90
2018-04-29T09:12:10.693Z,48.60
2018-04-29T09:14:39.022Z,47.10
2018-04-29T09:17:07.097Z,47.70
2018-04-29T09:19:34.781Z,46.60
2018-04-29T09:22:02.367Z,48.30
2018-04-29T09:24:29.963Z,47.30
2018-04-29T09:26:57.621Z,46.30
2018-04-29T09:29:26.054Z,47.00
2018-04-29T09:31:53.751Z,46.20
2018-04-29T09:34:21.424Z,45.30
2018-04-29T09:36:49.673Z,45.10
2018-04-29T09:39:17.822Z,42.40
2018-04-29T09:41:48.936Z,43.80
2018-04-29T09:44:16.956Z,43.70
2018-04-29T09:46:45.334Z,46.30
2018-04-29T09:49:13.969Z,44.00
2018-04-29T09:51:41.804Z,44.00
2018-04-29T09:54:09.431Z,44.00
2018-04-29T09:56:37.241Z,45.00
2018-04-29T09:59:05.581Z,44.60
2018-04-29T10:01:36.129Z,43.40
2018-04-29T10:04:03.827Z,43.50
2018-04-29T10:06:31.439Z,44.50
2018-04-29T10:09:00.006Z,43.10
2018-04-29T10:11:28.478Z,43.60
2018-04-29T10:13:56.220Z,43.20
2018-04-29T10:16:23.842Z,43.90
2018-04-29T10:18:51.487Z,40.70
2018-04-29T10:21:19.191Z,43.00
2018-04-29T10:23:47.011Z,45.30
2018-04-29T10:26:15.337Z,43.70
2018-04-29T10:28:44.380Z,42.00
2018-04-29T10:31:13.235Z,41.80
2018-04-29T10:33:41.795Z,41.70
2018-04-29T10:36:10.221Z,43.00
2018-04-29T10:38:38.814Z,43.40
2018-04-29T10:43:44.412Z,43.10
2018-04-29T10:46:14.741Z,44.20
2018-04-29T10:48:45.055Z,43.10
2018-04-29T10:51:12.790Z,43.10
2018-04-29T10:53:45.356Z,42.10
2018-04-29T11:01:44.745Z,42.40
2018-04-29T11:09:42.199Z,44.10
2018-04-29T11:12:10.568Z,43.60
2018-04-29T11:14:38.305Z,43.50
2018-04-29T11:17:06.236Z,43.90
2018-04-29T11:19:33.910Z,44.60
2018-04-29T11:22:01.651Z,45.70
2018-04-29T11:24:29.214Z,44.90
2018-04-29T11:26:57.570Z,43.80
2018-04-29T11:29:26.000Z,43.60
2018-04-29T11:31:53.681Z,43.60
2018-04-29T11:34:21.729Z,41.20
2018-04-29T11:36:49.495Z,43.10
2018-04-29T11:39:17.158Z,42.80
2018-04-29T11:41:44.818Z,44.00
2018-04-29T11:44:12.477Z,42.80
2018-04-29T11:46:40.153Z,41.10
2018-04-29T11:49:07.906Z,41.60
2018-04-29T11:51:36.081Z,40.80
2018-04-29T11:54:03.991Z,41.20
2018-04-29T11:56:32.537Z,39.30
2018-04-29T11:59:00.204Z,39.20
2018-04-29T12:01:27.871Z,39.40
2018-04-29T12:03:55.920Z,40.10
2018-04-29T12:06:23.813Z,39.50
2018-04-29T12:08:51.654Z,39.40
2018-04-29T12:11:19.431Z,39.30
2018-04-29T12:13:47.111Z,37.40
2018-04-29T12:16:14.723Z,36.80
2018-04-29T12:18:42.284Z,37.90
2018-04-29T12:21:09.988Z,35.50
2018-04-29T12:23:38.660Z,37.40
2018-04-29T12:26:07.660Z,38.60
2018-04-29T12:28:35.260Z,38.50
2018-04-29T12:31:03.783Z,37.40
2018-04-29T12:33:31.538Z,37.40
2018-04-29T12:35:59.152Z,37.90
2018-04-29T12:38:26.784Z,36.70
2018-04-29T12:40:54.656Z,39.70
2018-04-29T12:43:22.436Z,39.20
2018-04-29T12:45:50.241Z,38.60
2018-04-29T12:48:18.137Z,37.30
2018-04-29T12:50:45.995Z,37.30
2018-04-29T12:53:13.721Z,35.90
2018-04-29T12:55:42.435Z,36.50
2018-04-29T12:58:10.175Z,34.10
2018-04-29T13:00:38.738Z,37.30
2018-04-29T13:03:07.452Z,36.30
2018-04-29T13:05:36.078Z,35.90
2018-04-29T13:08:03.835Z,35.90
2018-04-29T13:10:31.528Z,35.70
2018-04-29T13:13:00.041Z,35.60
2018-04-29T13:15:27.779Z,35.40
2018-04-29T13:17:56.163Z,34.70
2018-04-29T13:20:24.655Z,36.40
2018-04-29T13:22:53.003Z,35.40
2018-04-29T13:25:20.625Z,34.60
2018-04-29T13:27:48.213Z,36.30
2018-04-29T13:30:15.944Z,36.10
2018-04-29T13:32:43.578Z,35.10
2018-04-29T13:35:12.161Z,36.60
2018-04-29T13:37:39.836Z,36.60
2018-04-29T13:40:08.267Z,35.80
2018-04-29T13:42:35.972Z,35.90
2018-04-29T13:45:04.279Z,35.40
2018-04-29T13:47:31.878Z,34.60
2018-04-29T13:49:59.682Z,35.80
2018-04-29T13:52:27.483Z,34.60
2018-04-29T13:54:55.142Z,35.70
2018-04-29T13:57:22.940Z,34.50
2018-04-29T13:59:51.336Z,34.40
2018-04-29T14:02:20.094Z,34.30
2018-04-29T14:04:48.535Z,34.10
2018-04-29T14:07:16.359Z,35.30
2018-04-29T14:09:44.287Z,33.30
2018-04-29T14:12:12.018Z,34.30
2018-04-29T14:14:39.918Z,35.50
2018-04-29T14:17:08.038Z,33.70
2018-04-29T14:19:36.883Z,35.00
2018-04-29T14:22:04.544Z,34.90
2018-04-29T14:24:32.234Z,33.60
2018-04-29T14:27:01.736Z,34.50
2018-04-29T14:29:30.294Z,33.70
2018-04-29T14:31:58.056Z,33.80
2018-04-29T14:34:25.939Z,34.80
2018-04-29T14:36:53.480Z,33.00
2018-04-29T14:39:21.997Z,32.60
2018-04-29T14:41:50.902Z,34.10
2018-04-29T14:44:18.606Z,33.90
2018-04-29T14:46:46.225Z,33.80
2018-04-29T14:49:13.865Z,34.20
2018-04-29T14:51:41.654Z,36.00
2018-04-29T14:54:10.173Z,34.90
2018-04-29T14:56:37.901Z,34.90
2018-04-29T14:59:05.783Z,36.60
2018-04-29T15:01:34.222Z,37.00
2018-04-29T15:04:01.902Z,36.90
2018-04-29T15:06:30.522Z,42.50
2018-04-29T15:08:58.896Z,40.40
2018-04-29T15:11:27.529Z,38.90
2018-04-29T15:13:55.164Z,38.90
2018-04-29T15:16:23.045Z,39.30
2018-04-29T15:18:59.645Z,38.30
2018-04-29T15:21:27.478Z,38.40
2018-04-29T15:23:55.251Z,37.80
2018-04-29T15:26:23.021Z,37.00
2018-04-29T15:28:51.800Z,38.80
2018-04-29T15:31:19.462Z,38.80
2018-04-29T15:33:48.397Z,38.80
2018-04-29T15:36:16.894Z,38.90
2018-04-29T15:38:44.689Z,38.60
2018-04-29T15:41:12.467Z,39.10
2018-04-29T15:43:40.428Z,39.20
2018-04-29T15:46:08.362Z,39.80
2018-04-29T15:48:36.007Z,40.30
2018-04-29T15:51:04.537Z,39.80
2018-04-29T15:53:33.123Z,39.60
2018-04-29T15:56:00.878Z,40.00
2018-04-29T15:58:28.553Z,39.40
2018-04-29T16:00:56.144Z,39.50
2018-04-29T16:03:24.266Z,39.80
2018-04-29T16:05:52.691Z,39.40
2018-04-29T16:08:20.707Z,39.50
2018-04-29T16:10:49.213Z,40.30
2018-04-29T16:13:16.980Z,40.10
2018-04-29T16:15:44.600Z,40.40
2018-04-29T16:18:13.736Z,40.10
2018-04-29T16:20:41.356Z,39.80
2018-04-29T16:23:10.052Z,39.20
2018-04-29T16:25:37.888Z,39.20
2018-04-29T16:28:05.547Z,38.50
2018-04-29T16:30:34.879Z,38.00
2018-04-29T16:33:03.296Z,38.60
2018-04-29T16:35:31.184Z,38.60
2018-04-29T16:37:58.850Z,38.00
2018-04-29T16:40:27.258Z,38.30
2018-04-29T16:42:55.746Z,40.00
2018-04-29T16:45:24.225Z,39.10
2018-04-29T16:47:52.719Z,39.10
2018-04-29T16:50:20.508Z,39.10
2018-04-29T16:52:48.874Z,38.70
2018-04-29T16:55:16.513Z,38.70
2018-04-29T16:57:45.086Z,39.00
2018-04-29T17:00:13.508Z,39.30
2018-04-29T17:02:41.051Z,39.30
2018-04-29T17:05:09.349Z,40.30
2018-04-29T17:07:42.649Z,38.80
2018-04-29T17:10:10.504Z,38.70
2018-04-29T17:12:39.114Z,39.10
2018-04-29T17:15:06.876Z,39.10
2018-04-29T17:17:34.502Z,38.30
2018-04-29T17:20:02.276Z,38.40
2018-04-29T17:22:56.220Z,39.60
2018-04-29T17:25:24.841Z,39.40
2018-04-29T17:27:52.480Z,39.40
2018-04-29T17:30:20.366Z,40.40
2018-04-29T17:32:48.092Z,38.80
2018-04-29T17:35:16.321Z,39.90
2018-04-29T17:37:44.742Z,39.00
2018-04-29T17:40:12.406Z,39.00
2018-04-29T17:42:41.189Z,39.20
2018-04-29T17:45:09.038Z,39.20
2018-04-29T17:47:37.537Z,38.80
2018-04-29T17:50:06.180Z,38.70
2018-04-29T17:52:34.809Z,38.40
2018-04-29T17:55:02.455Z,38.30
2018-04-29T17:57:30.083Z,38.90
2018-04-29T17:59:58.153Z,38.60
2018-04-29T18:02:26.053Z,38.20
2018-04-29T18:04:53.657Z,37.90
2018-04-29T18:07:22.167Z,39.00
2018-04-29T18:09:50.047Z,38.90
2018-04-29T18:12:18.482Z,38.60
2018-04-29T18:14:46.162Z,38.80
2018-04-29T18:17:13.802Z,39.30
2018-04-29T18:19:42.308Z,39.80
2018-04-29T18:22:10.183Z,39.80
2018-04-29T18:24:38.042Z,39.90
2018-04-29T18:27:05.698Z,40.20
2018-04-29T18:29:33.439Z,40.40
2018-04-29T18:32:02.051Z,40.80
2018-04-29T18:34:29.792Z,40.80
2018-04-29T18:36:58.154Z,41.60
2018-04-29T18:39:26.781Z,41.70
2018-04-29T18:41:54.588Z,41.70
2018-04-29T18:44:22.969Z,41.90
2018-04-29T18:46:50.543Z,41.80
2018-04-29T18:49:18.176Z,42.00
2018-04-29T18:51:46.664Z,43.00
2018-04-29T18:54:14.324Z,42.80
2018-04-29T18:56:42.275Z,42.70
2018-04-29T18:59:09.966Z,42.70
2018-04-29T19:01:38.498Z,43.00
2018-04-29T19:04:06.049Z,42.90
2018-04-29T19:06:34.043Z,43.70
2018-04-29T19:09:01.643Z,44.20
2018-04-29T19:11:30.809Z,44.30
2018-04-29T19:13:58.451Z,44.30
2018-04-29T19:16:26.072Z,45.50
2018-04-29T19:18:53.803Z,46.60
2018-04-29T19:21:21.475Z,47.40
2018-04-29T19:23:49.212Z,47.20
2018-04-29T19:26:17.070Z,48.20
2018-04-29T19:28:46.136Z,48.80
2018-04-29T19:31:14.844Z,49.30
2018-04-29T19:33:42.766Z,49.30
2018-04-29T19:36:11.926Z,49.30
2018-04-29T19:38:39.586Z,49.30
2018-04-29T19:41:07.299Z,49.60
2018-04-29T19:43:36.622Z,50.30
2018-04-29T19:46:04.883Z,50.30
2018-04-29T19:48:33.406Z,50.30
2018-04-29T19:51:00.975Z,49.80
2018-04-29T19:53:28.671Z,49.90
2018-04-29T19:55:57.099Z,49.90
2018-04-29T19:58:25.188Z,49.90
2018-04-29T20:00:53.663Z,50.90
2018-04-29T20:03:21.391Z,50.40
2018-04-29T20:05:49.753Z,51.40
2018-04-29T20:08:18.508Z,50.90
2018-04-29T20:10:46.353Z,50.80
2018-04-29T20:13:14.205Z,51.90
2018-04-29T20:15:43.145Z,51.30
2018-04-29T20:18:11.013Z,51.30
2018-04-29T20:20:40.358Z,51.60
2018-04-29T20:23:07.949Z,51.60
2018-04-29T20:25:40.517Z,51.70
2018-04-29T20:28:09.363Z,52.20
2018-04-29T20:30:37.683Z,51.90
2018-04-29T20:33:05.293Z,51.80
2018-04-29T20:35:33.002Z,51.30
2018-04-29T20:38:00.617Z,51.30
2018-04-29T20:40:28.271Z,50.90
2018-04-29T20:42:55.982Z,51.10
2018-04-29T20:45:23.608Z,51.70
2018-04-29T20:47:52.049Z,51.20
2018-04-29T20:50:19.730Z,51.20
2018-04-29T20:52:47.343Z,51.20
2018-04-29T20:55:15.022Z,51.20
2018-04-29T20:57:43.770Z,50.90
2018-04-29T21:00:11.571Z,50.90
2018-04-29T21:02:39.300Z,51.20
2018-04-29T21:05:07.023Z,51.30
2018-04-29T21:10:36.251Z,51.50
2018-04-29T21:13:04.002Z,51.30
2018-04-29T21:15:31.657Z,51.30
2018-04-29T21:18:00.414Z,52.20
2018-04-29T21:20:29.065Z,51.50
2018-04-29T21:22:58.510Z,52.40
2018-04-29T21:25:27.161Z,51.90
2018-04-29T21:27:55.540Z,52.20
2018-04-29T21:30:24.198Z,52.30
2018-04-29T21:32:51.777Z,52.20
2018-04-29T21:35:20.213Z,52.30
2018-04-29T21:37:47.796Z,52.30
2018-04-29T21:40:15.503Z,52.40
2018-04-29T21:42:43.158Z,52.40
2018-04-29T21:45:11.670Z,52.80
2018-04-29T21:47:39.317Z,52.80
2018-04-29T21:50:07.068Z,52.70
2018-04-29T21:52:35.545Z,52.80
2018-04-29T21:55:03.541Z,52.70
2018-04-29T21:57:31.825Z,53.10
2018-04-29T22:00:00.812Z,53.20
2018-04-29T22:02:35.454Z,53.10
2018-04-29T22:05:03.066Z,53.20
2018-04-29T22:07:30.707Z,53.40
2018-04-29T22:09:58.455Z,53.30
2018-04-29T22:12:27.252Z,53.30
2018-04-29T22:14:55.823Z,53.40
2018-04-29T22:17:23.747Z,53.50
2018-04-29T22:19:51.477Z,53.20
2018-04-29T22:22:19.238Z,53.30
2018-04-29T22:24:48.148Z,53.80
2018-04-29T22:27:15.970Z,53.80
2018-04-29T22:29:43.725Z,54.00
2018-04-29T22:38:13.045Z,53.60
2018-04-29T22:44:02.344Z,53.90
2018-04-29T22:46:30.036Z,54.10
2018-04-29T22:48:58.425Z,54.30
2018-04-29T22:51:26.808Z,54.50
2018-04-29T22:53:55.844Z,54.60
2018-04-29T22:56:23.670Z,54.50
2018-04-29T22:58:52.384Z,55.10
2018-04-29T23:01:20.110Z,55.10
2018-04-29T23:03:47.889Z,55.20
2018-04-29T23:06:15.762Z,55.30
2018-04-29T23:08:48.068Z,55.90
2018-04-29T23:11:15.945Z,55.40
2018-04-29T23:13:43.614Z,55.70
2018-04-29T23:16:11.359Z,55.90
2018-04-29T23:18:43.400Z,56.60
2018-04-29T23:21:11.438Z,57.20
2018-04-29T23:23:39.859Z,57.60
2018-04-29T23:26:07.482Z,57.60
2018-04-29T23:28:35.107Z,62.20
2018-04-29T23:31:02.798Z,62.60
2018-04-29T23:33:31.186Z,65.10
2018-04-29T23:35:59.571Z,65.20
2018-04-29T23:38:27.175Z,65.20
2018-04-29T23:40:54.839Z,65.20
2018-04-29T23:43:23.332Z,67.30
2018-04-29T23:45:51.776Z,67.20
2018-04-29T23:48:19.408Z,67.20
2018-04-29T23:50:47.079Z,67.30
2018-04-29T23:53:14.630Z,66.90
2018-04-29T23:55:43.020Z,66.90
2018-04-29T23:58:10.622Z,66.80
